Time;durP1;ratioP1;P1;durP2;ratioP2;P2;SDS_P1;SDS_P2;PMS_P1;PMS_P2;Temp;Humidity;BMP_temperature;BMP_pressure;BME280_temperature;BME280_humidity;BME280_pressure;Samples;Min_cycle;Max_cycle;Signal;HPM_P1;HPM_P2
2021/11/29 00:01:59;;;;;;;0.70;0.10;;;2.30;99.90;;;;;;6241215;22;20008;-62
2021/11/29 00:04:25;;;;;;;0.00;0.00;;;2.30;99.90;;;;;;6241051;22;20012;-62
2021/11/29 00:06:51;;;;;;;0.43;0.25;;;2.40;99.90;;;;;;6240897;22;20396;-62
2021/11/29 00:09:16;;;;;;;1.95;0.05;;;2.30;99.90;;;;;;6241183;22;20388;-63
2021/11/29 00:11:42;;;;;;;0.63;0.20;;;2.30;99.90;;;;;;6241477;22;20066;-62
2021/11/29 00:14:08;;;;;;;3.25;0.05;;;2.20;99.90;;;;;;6240118;22;20012;-61
2021/11/29 00:16:33;;;;;;;1.30;0.13;;;2.20;99.90;;;;;;6239528;23;20008;-62
2021/11/29 00:18:59;;;;;;;4.38;0.40;;;2.20;99.90;;;;;;6240836;22;20020;-62
2021/11/29 00:21:25;;;;;;;1.65;0.10;;;2.20;99.90;;;;;;6242343;22;20068;-62
2021/11/29 00:23:51;;;;;;;0.75;0.30;;;2.30;99.90;;;;;;6240628;22;20012;-62
2021/11/29 00:26:19;;;;;;;0.43;0.10;;;2.30;99.90;;;;;;6240765;22;20341;-62
2021/11/29 00:28:45;;;;;;;2.10;0.50;;;2.30;99.90;;;;;;6239367;23;20016;-61
2021/11/29 00:31:11;;;;;;;0.10;0.00;;;2.40;99.90;;;;;;6240805;22;20515;-62
2021/11/29 00:33:37;;;;;;;0.13;0.10;;;2.50;99.90;;;;;;6239714;23;20008;-62
2021/11/29 00:36:03;;;;;;;0.32;0.00;;;2.60;99.90;;;;;;6241251;22;20023;-62
2021/11/29 00:38:29;;;;;;;0.73;0.15;;;2.60;99.90;;;;;;6240750;22;20007;-62
2021/11/29 00:40:55;;;;;;;3.95;0.10;;;2.60;99.90;;;;;;6241145;22;20350;-62
2021/11/29 00:43:21;;;;;;;3.70;0.90;;;2.60;99.90;;;;;;6239095;22;20028;-61
2021/11/29 00:45:47;;;;;;;3.47;0.52;;;2.60;99.90;;;;;;6240820;22;20020;-62
2021/11/29 00:48:12;;;;;;;2.40;0.50;;;2.60;99.90;;;;;;6240366;22;20019;-62
2021/11/29 00:50:38;;;;;;;0.00;0.00;;;2.60;99.90;;;;;;6241060;22;20065;-62
2021/11/29 00:53:06;;;;;;;2.20;0.20;;;2.60;99.90;;;;;;6240355;22;20008;-63
2021/11/29 00:55:31;;;;;;;0.00;0.00;;;2.70;99.90;;;;;;6240304;22;20019;-62
2021/11/29 00:57:57;;;;;;;3.42;0.10;;;2.70;99.90;;;;;;6240714;22;20012;-62
2021/11/29 01:00:24;;;;;;;1.02;0.08;;;2.70;99.90;;;;;;6240618;22;20012;-62
2021/11/29 01:02:50;;;;;;;1.98;0.10;;;2.60;99.90;;;;;;6240679;22;20012;-63
2021/11/29 01:05:16;;;;;;;1.77;0.40;;;2.70;99.90;;;;;;6238473;22;20012;-63
2021/11/29 01:07:42;;;;;;;0.20;0.00;;;2.70;99.90;;;;;;6241279;22;20078;-63
2021/11/29 01:10:10;;;;;;;1.15;0.20;;;2.70;99.90;;;;;;6240042;22;20012;-62
2021/11/29 01:12:36;;;;;;;0.30;0.00;;;2.70;99.90;;;;;;6241194;22;20015;-62
2021/11/29 01:15:03;;;;;;;3.58;0.00;;;2.70;99.90;;;;;;6239381;22;20358;-62
2021/11/29 01:17:29;;;;;;;1.08;0.10;;;2.70;99.90;;;;;;6240359;22;20008;-62
2021/11/29 01:19:54;;;;;;;1.85;0.10;;;2.70;99.90;;;;;;6240170;22;20377;-62
2021/11/29 01:22:20;;;;;;;1.17;0.10;;;2.70;99.90;;;;;;6240718;22;20070;-62
2021/11/29 01:24:46;;;;;;;0.28;0.10;;;2.60;99.90;;;;;;6240840;22;20394;-62
2021/11/29 01:27:11;;;;;;;3.47;0.17;;;2.60;99.90;;;;;;6239904;22;20012;-62
2021/11/29 01:29:37;;;;;;;3.25;0.10;;;2.60;99.90;;;;;;6240996;22;20065;-62
2021/11/29 01:32:03;;;;;;;0.40;0.10;;;2.60;99.90;;;;;;6240276;22;20012;-62
2021/11/29 01:34:29;;;;;;;4.35;0.15;;;2.50;99.90;;;;;;6240348;22;20091;-62
2021/11/29 01:36:55;;;;;;;0.35;0.10;;;2.50;99.90;;;;;;6239957;22;20031;-62
2021/11/29 01:39:21;;;;;;;2.90;0.30;;;2.40;99.90;;;;;;6238620;22;20016;-62
2021/11/29 01:41:48;;;;;;;2.25;0.47;;;2.40;99.90;;;;;;6238643;23;20008;-62
2021/11/29 01:44:14;;;;;;;1.67;0.30;;;2.50;99.90;;;;;;6239951;22;20008;-62
2021/11/29 01:46:41;;;;;;;1.42;0.10;;;2.50;99.90;;;;;;6240299;22;20012;-62
2021/11/29 01:49:07;;;;;;;5.68;0.30;;;2.50;99.90;;;;;;6239833;22;20012;-62
2021/11/29 01:51:33;;;;;;;1.65;0.25;;;2.50;99.90;;;;;;6241040;22;20507;-62
2021/11/29 01:53:59;;;;;;;1.58;0.20;;;2.60;99.90;;;;;;6238431;22;20019;-62
2021/11/29 01:56:24;;;;;;;1.33;0.17;;;2.60;99.90;;;;;;6237861;22;20012;-63
2021/11/29 01:58:50;;;;;;;0.98;0.20;;;2.50;99.90;;;;;;6238298;22;20111;-62
2021/11/29 02:01:20;;;;;;;1.50;0.20;;;2.40;99.90;;;;;;6249323;22;20004;-63
2021/11/29 02:03:48;;;;;;;0.60;0.30;;;2.40;99.90;;;;;;6240426;22;20016;-62
2021/11/29 02:06:15;;;;;;;2.58;0.55;;;2.30;99.90;;;;;;6236950;22;20235;-61
2021/11/29 02:08:41;;;;;;;1.27;0.20;;;2.20;99.90;;;;;;6240623;22;20114;-62
2021/11/29 02:11:07;;;;;;;1.98;0.63;;;2.20;99.90;;;;;;6237530;22;20012;-62
2021/11/29 02:13:33;;;;;;;0.63;0.38;;;2.10;99.90;;;;;;6239905;22;20004;-62
2021/11/29 02:15:59;;;;;;;0.68;0.20;;;2.10;99.90;;;;;;6239630;22;20086;-61
2021/11/29 02:18:32;;;;;;;0.50;0.10;;;2.00;99.90;;;;;;6240096;22;20016;-62
2021/11/29 02:21:16;;;;;;;0.38;0.10;;;2.00;99.90;;;;;;6239988;22;20509;-62
2021/11/29 02:23:48;;;;;;;2.10;0.10;;;2.00;99.90;;;;;;6239532;22;20517;-62
2021/11/29 02:26:15;;;;;;;0.90;0.15;;;2.00;99.90;;;;;;6238062;22;20027;-62
2021/11/29 02:28:42;;;;;;;1.15;0.25;;;2.00;99.90;;;;;;6240518;22;20044;-63
2021/11/29 02:31:13;;;;;;;2.60;0.20;;;1.90;99.90;;;;;;6239089;22;20375;-62
2021/11/29 02:33:39;;;;;;;0.85;0.32;;;2.00;99.90;;;;;;6240869;22;20012;-62
2021/11/29 02:36:05;;;;;;;2.97;0.10;;;1.90;99.90;;;;;;6238048;22;20405;-64
2021/11/29 02:38:32;;;;;;;3.58;0.70;;;1.90;99.90;;;;;;6237831;23;20074;-62
2021/11/29 02:40:58;;;;;;;1.85;0.20;;;1.90;99.90;;;;;;6239738;22;20066;-63
2021/11/29 02:43:25;;;;;;;2.40;0.10;;;1.90;99.90;;;;;;6239973;22;20066;-63
2021/11/29 02:45:51;;;;;;;0.20;0.10;;;1.90;99.90;;;;;;6239630;22;20019;-62
2021/11/29 02:48:17;;;;;;;1.10;0.22;;;1.90;99.90;;;;;;6239440;22;20008;-61
2021/11/29 02:50:42;;;;;;;1.15;0.30;;;1.90;99.90;;;;;;6240177;22;20017;-64
2021/11/29 02:53:11;;;;;;;0.45;0.05;;;1.90;99.90;;;;;;6239420;22;20015;-62
2021/11/29 02:55:39;;;;;;;2.33;0.30;;;1.90;99.90;;;;;;6240150;22;20007;-61
2021/11/29 02:58:06;;;;;;;3.20;0.40;;;2.00;99.90;;;;;;6239327;22;20015;-62
2021/11/29 03:00:33;;;;;;;0.70;0.20;;;2.10;99.90;;;;;;6238480;22;20028;-62
2021/11/29 03:03:08;;;;;;;2.15;0.28;;;2.10;99.90;;;;;;6239862;22;20030;-62
2021/11/29 03:05:34;;;;;;;2.15;0.17;;;2.10;99.90;;;;;;6239358;22;20034;-63
2021/11/29 03:07:59;;;;;;;3.00;0.28;;;2.20;99.90;;;;;;6239611;22;20012;-62
2021/11/29 03:10:25;;;;;;;6.80;0.40;;;2.20;99.90;;;;;;6239715;22;20012;-62
2021/11/29 03:12:52;;;;;;;2.72;0.20;;;2.30;99.90;;;;;;6239837;22;20008;-62
2021/11/29 03:15:18;;;;;;;1.15;0.40;;;2.30;99.90;;;;;;6239305;22;20004;-62
2021/11/29 03:17:44;;;;;;;1.75;0.15;;;2.40;99.90;;;;;;6240283;22;20012;-62
2021/11/29 03:20:11;;;;;;;1.20;0.00;;;2.40;99.90;;;;;;6239289;22;20004;-63
2021/11/29 03:22:37;;;;;;;2.95;0.20;;;2.50;99.90;;;;;;6242108;22;20004;-62
2021/11/29 03:25:04;;;;;;;1.23;0.30;;;2.50;99.90;;;;;;6239571;22;20015;-63
2021/11/29 03:27:29;;;;;;;6.75;0.20;;;2.50;99.90;;;;;;6241041;22;20024;-62
2021/11/29 03:29:55;;;;;;;1.15;0.20;;;2.50;99.90;;;;;;6241288;22;20441;-62
2021/11/29 03:32:22;;;;;;;1.83;0.20;;;2.50;99.90;;;;;;6241090;22;20008;-62
2021/11/29 03:34:49;;;;;;;0.10;0.00;;;2.40;99.90;;;;;;6242055;22;20016;-63
2021/11/29 03:37:15;;;;;;;1.13;0.40;;;2.30;99.90;;;;;;6240631;22;20030;-62
2021/11/29 03:39:41;;;;;;;1.42;0.20;;;2.30;99.90;;;;;;6240389;22;20023;-62
2021/11/29 03:42:07;;;;;;;0.88;0.47;;;2.30;99.90;;;;;;6240650;22;20016;-63
2021/11/29 03:44:34;;;;;;;0.52;0.20;;;2.20;99.90;;;;;;6242107;22;20032;-61
2021/11/29 03:47:00;;;;;;;0.60;0.40;;;2.20;99.90;;;;;;6240893;22;20046;-63
2021/11/29 03:49:26;;;;;;;1.67;0.22;;;2.20;99.90;;;;;;6241359;22;20023;-62
2021/11/29 03:51:52;;;;;;;1.65;0.32;;;2.30;99.90;;;;;;6239517;22;20023;-62
2021/11/29 03:54:18;;;;;;;0.70;0.30;;;2.30;99.90;;;;;;6241103;22;20004;-62
2021/11/29 03:56:44;;;;;;;0.57;0.35;;;2.40;99.90;;;;;;6241633;22;20066;-63
2021/11/29 03:59:10;;;;;;;2.15;0.43;;;2.50;99.90;;;;;;6240565;22;20020;-63
2021/11/29 04:01:35;;;;;;;2.85;0.50;;;2.50;99.90;;;;;;6241604;22;20774;-63
2021/11/29 04:04:02;;;;;;;2.65;0.32;;;2.70;99.90;;;;;;6241400;22;20016;-63
2021/11/29 04:06:28;;;;;;;3.35;0.55;;;2.70;99.90;;;;;;6240887;22;20477;-62
2021/11/29 04:08:53;;;;;;;1.38;0.57;;;2.70;99.90;;;;;;6240900;22;20012;-62
2021/11/29 04:11:20;;;;;;;2.78;0.65;;;2.70;99.90;;;;;;6241203;22;20437;-62
2021/11/29 04:13:46;;;;;;;4.57;0.65;;;2.70;99.90;;;;;;6239766;23;20012;-63
2021/11/29 04:16:13;;;;;;;3.95;0.40;;;2.80;99.90;;;;;;6238498;22;20008;-62
2021/11/29 04:18:41;;;;;;;2.22;0.50;;;2.90;99.90;;;;;;6239517;23;20032;-62
2021/11/29 04:21:06;;;;;;;1.95;0.43;;;3.00;99.90;;;;;;6240666;22;20015;-62
2021/11/29 04:23:33;;;;;;;3.47;0.70;;;3.00;99.90;;;;;;6241586;22;20011;-61
2021/11/29 04:26:01;;;;;;;4.53;0.55;;;3.00;99.90;;;;;;6240907;22;20493;-62
2021/11/29 04:28:27;;;;;;;3.85;0.73;;;3.00;99.90;;;;;;6240750;22;20012;-63
2021/11/29 04:30:53;;;;;;;3.35;0.30;;;2.90;99.90;;;;;;6240609;22;20350;-62
2021/11/29 04:33:19;;;;;;;5.28;1.17;;;2.90;99.90;;;;;;6240738;22;20019;-62
2021/11/29 04:35:45;;;;;;;4.57;0.63;;;2.80;99.90;;;;;;6241347;22;20091;-63
2021/11/29 04:38:11;;;;;;;1.70;0.30;;;2.80;99.90;;;;;;6240546;22;20437;-63
2021/11/29 04:40:37;;;;;;;4.95;0.65;;;2.80;99.90;;;;;;6239554;22;20087;-65
2021/11/29 04:43:02;;;;;;;3.13;0.32;;;2.80;99.90;;;;;;6240783;22;20012;-63
2021/11/29 04:45:29;;;;;;;4.80;0.35;;;2.90;99.90;;;;;;6240173;22;20019;-62
2021/11/29 04:47:55;;;;;;;5.22;0.30;;;3.00;99.90;;;;;;6240970;22;20016;-63
2021/11/29 04:50:20;;;;;;;1.17;0.10;;;3.00;99.90;;;;;;6240313;22;20099;-62
2021/11/29 04:52:46;;;;;;;3.95;0.38;;;3.10;99.90;;;;;;6239761;23;20022;-62
2021/11/29 04:55:12;;;;;;;1.73;0.40;;;3.10;99.90;;;;;;6239687;22;20010;-62
2021/11/29 04:57:40;;;;;;;8.10;0.40;;;3.10;99.90;;;;;;6241239;22;20338;-63
2021/11/29 05:00:07;;;;;;;1.77;0.17;;;3.10;99.90;;;;;;6240640;22;20091;-62
2021/11/29 05:02:32;;;;;;;2.17;0.22;;;3.10;99.90;;;;;;6239167;23;20315;-63
2021/11/29 05:04:58;;;;;;;1.90;0.70;;;3.00;99.90;;;;;;6238818;22;20110;-64
2021/11/29 05:07:25;;;;;;;2.03;0.80;;;2.90;99.90;;;;;;6240390;22;20012;-62
2021/11/29 05:09:51;;;;;;;1.40;0.22;;;2.80;99.90;;;;;;6238863;22;20036;-63
2021/11/29 05:12:17;;;;;;;4.22;0.35;;;2.80;99.90;;;;;;6240393;22;20468;-62
2021/11/29 05:14:47;;;;;;;1.00;0.45;;;2.70;99.90;;;;;;6240902;22;20016;-63
2021/11/29 05:17:14;;;;;;;5.65;0.25;;;2.70;99.90;;;;;;6237935;22;20052;-62
2021/11/29 05:19:39;;;;;;;2.10;0.65;;;2.60;99.90;;;;;;6240767;22;20111;-64
2021/11/29 05:22:05;;;;;;;0.90;0.20;;;2.60;99.90;;;;;;6240510;22;20430;-62
2021/11/29 05:24:33;;;;;;;2.55;0.20;;;2.50;99.90;;;;;;6238565;23;20008;-62
2021/11/29 05:26:59;;;;;;;1.98;0.10;;;2.50;99.90;;;;;;6238742;22;20016;-62
2021/11/29 05:29:24;;;;;;;2.20;0.63;;;2.40;99.90;;;;;;6240301;22;22136;-62
2021/11/29 05:31:50;;;;;;;4.72;0.85;;;2.40;99.90;;;;;;6239774;22;20512;-63
2021/11/29 05:34:16;;;;;;;0.70;0.38;;;2.30;99.90;;;;;;6239460;22;20012;-64
2021/11/29 05:36:42;;;;;;;3.60;0.40;;;2.30;99.90;;;;;;6240133;22;20500;-62
2021/11/29 05:39:08;;;;;;;5.05;0.40;;;2.20;99.90;;;;;;6239155;22;20012;-64
2021/11/29 05:41:34;;;;;;;2.97;0.30;;;2.20;99.90;;;;;;6240342;22;20611;-63
2021/11/29 05:44:00;;;;;;;3.85;0.30;;;2.20;99.90;;;;;;6239859;22;20016;-62
2021/11/29 05:46:25;;;;;;;0.57;0.10;;;2.10;99.90;;;;;;6239571;22;20560;-61
2021/11/29 05:48:52;;;;;;;5.32;0.63;;;2.10;99.90;;;;;;6239662;22;20343;-62
2021/11/29 05:51:18;;;;;;;1.08;0.35;;;2.10;99.90;;;;;;6237786;22;20016;-63
2021/11/29 05:53:44;;;;;;;2.35;0.50;;;2.00;99.90;;;;;;6238574;23;20406;-62
2021/11/29 05:56:10;;;;;;;10.63;0.57;;;2.10;99.90;;;;;;6238471;22;20388;-63
2021/11/29 05:58:36;;;;;;;2.33;0.40;;;2.20;99.90;;;;;;6238517;23;20012;-64
2021/11/29 06:01:03;;;;;;;4.13;0.60;;;2.30;99.90;;;;;;6237104;22;20087;-64
2021/11/29 06:03:29;;;;;;;3.05;0.70;;;2.40;99.90;;;;;;6239475;22;20011;-62
2021/11/29 06:05:55;;;;;;;3.15;0.60;;;2.60;99.90;;;;;;6239385;22;20093;-62
2021/11/29 06:08:21;;;;;;;5.15;0.40;;;2.80;99.90;;;;;;6233587;22;20457;-62
2021/11/29 06:10:47;;;;;;;6.93;0.55;;;2.90;99.90;;;;;;6237090;22;20008;-62
2021/11/29 06:13:12;;;;;;;5.68;0.80;;;3.00;99.90;;;;;;6233679;22;20004;-63
2021/11/29 06:15:38;;;;;;;8.45;2.55;;;3.10;99.90;;;;;;6234644;23;20453;-63
2021/11/29 06:18:04;;;;;;;2.13;0.47;;;3.10;99.90;;;;;;6236826;22;20022;-62
2021/11/29 06:20:29;;;;;;;3.88;0.45;;;3.10;99.90;;;;;;6236682;22;20388;-62
2021/11/29 06:22:56;;;;;;;4.68;0.93;;;3.10;99.90;;;;;;6236742;22;20442;-63
2021/11/29 06:25:23;;;;;;;4.70;0.80;;;3.10;99.90;;;;;;6235960;22;20445;-61
2021/11/29 06:27:49;;;;;;;5.80;0.98;;;3.10;99.90;;;;;;6237563;22;20342;-63
2021/11/29 06:30:16;;;;;;;1.80;0.30;;;3.10;99.90;;;;;;6233823;22;20019;-64
2021/11/29 06:32:42;;;;;;;8.25;0.85;;;3.10;99.90;;;;;;6237132;22;20095;-61
2021/11/29 06:35:09;;;;;;;6.38;0.73;;;3.10;99.90;;;;;;6235849;22;20042;-63
2021/11/29 06:37:36;;;;;;;5.18;0.75;;;3.10;99.90;;;;;;6236991;22;20398;-62
2021/11/29 06:40:04;;;;;;;3.58;0.40;;;3.10;99.90;;;;;;6236377;22;20027;-62
2021/11/29 06:42:29;;;;;;;2.92;0.30;;;3.00;99.90;;;;;;6237146;22;20019;-62
2021/11/29 06:44:55;;;;;;;0.57;0.15;;;3.00;99.90;;;;;;6236400;22;20016;-63
2021/11/29 06:47:20;;;;;;;1.65;0.20;;;3.00;99.90;;;;;;6234972;22;20019;-63
2021/11/29 06:49:47;;;;;;;3.78;0.43;;;3.00;99.90;;;;;;6236734;22;20032;-62
2021/11/29 06:52:13;;;;;;;2.22;0.20;;;3.00;99.90;;;;;;6234569;22;20012;-64
2021/11/29 06:54:39;;;;;;;3.35;0.40;;;3.10;99.90;;;;;;6238901;22;20404;-62
2021/11/29 06:57:06;;;;;;;2.92;0.73;;;3.20;99.90;;;;;;6238236;22;20008;-62
2021/11/29 06:59:33;;;;;;;1.73;0.40;;;3.20;99.90;;;;;;6238781;22;20082;-62
2021/11/29 07:02:02;;;;;;;6.63;0.90;;;3.30;99.90;;;;;;6238331;22;20027;-62
2021/11/29 07:04:27;;;;;;;2.10;0.35;;;3.30;99.90;;;;;;6236759;22;20401;-64
2021/11/29 07:06:53;;;;;;;1.15;0.30;;;3.50;99.90;;;;;;6235974;22;20074;-62
2021/11/29 07:09:19;;;;;;;3.88;0.63;;;3.50;99.90;;;;;;6238269;22;20040;-63
2021/11/29 07:11:44;;;;;;;2.83;0.80;;;3.70;99.90;;;;;;6239279;22;20027;-62
2021/11/29 07:14:10;;;;;;;4.38;0.40;;;3.80;99.90;;;;;;6237305;22;20022;-64
2021/11/29 07:16:37;;;;;;;1.10;0.50;;;3.80;99.90;;;;;;6238962;22;20035;-62
2021/11/29 07:19:04;;;;;;;2.20;0.63;;;3.80;99.90;;;;;;6236866;22;20043;-62
2021/11/29 07:21:30;;;;;;;3.72;0.22;;;3.90;99.90;;;;;;6238039;22;20346;-62
2021/11/29 07:23:55;;;;;;;3.80;0.80;;;3.90;99.90;;;;;;6238367;22;20012;-64
2021/11/29 07:26:22;;;;;;;2.28;0.43;;;3.90;99.90;;;;;;6237727;22;20438;-62
2021/11/29 07:28:47;;;;;;;9.63;1.05;;;4.00;99.90;;;;;;6238841;22;20012;-63
2021/11/29 07:31:13;;;;;;;3.35;0.45;;;4.00;99.90;;;;;;6237526;22;20042;-62
2021/11/29 07:33:39;;;;;;;0.88;0.13;;;4.00;99.90;;;;;;6239499;22;20249;-62
2021/11/29 07:36:05;;;;;;;3.30;0.30;;;4.10;99.90;;;;;;6237298;22;20016;-62
2021/11/29 07:38:30;;;;;;;3.65;0.10;;;4.10;99.90;;;;;;6238553;22;20020;-62
2021/11/29 07:40:56;;;;;;;2.58;0.45;;;4.10;99.90;;;;;;6237668;22;20012;-63
2021/11/29 07:43:22;;;;;;;8.05;0.63;;;4.10;99.90;;;;;;6236716;22;20057;-62
2021/11/29 07:45:47;;;;;;;2.50;0.63;;;4.10;99.90;;;;;;6238394;22;20019;-62
2021/11/29 07:48:14;;;;;;;6.25;0.70;;;4.10;99.90;;;;;;6237303;22;20014;-65
2021/11/29 07:50:40;;;;;;;9.32;0.75;;;4.10;99.90;;;;;;6238715;22;20091;-62
2021/11/29 07:53:06;;;;;;;1.55;0.50;;;4.10;99.90;;;;;;6237878;22;20036;-62
2021/11/29 07:55:32;;;;;;;2.63;0.20;;;4.00;99.90;;;;;;6238093;22;20040;-62
2021/11/29 07:58:01;;;;;;;3.25;0.40;;;4.00;99.90;;;;;;6237889;22;20414;-61
2021/11/29 08:00:29;;;;;;;3.72;0.25;;;4.10;99.90;;;;;;6237829;22;22017;-62
2021/11/29 08:02:57;;;;;;;0.63;0.13;;;4.10;99.90;;;;;;6238317;22;20008;-62
2021/11/29 08:05:24;;;;;;;3.53;0.40;;;4.10;99.90;;;;;;6236546;22;20342;-62
2021/11/29 08:07:52;;;;;;;1.23;0.20;;;4.20;99.90;;;;;;6238486;22;20011;-62
2021/11/29 08:10:19;;;;;;;6.55;0.45;;;4.10;99.90;;;;;;6237214;22;20023;-63
2021/11/29 08:12:46;;;;;;;4.00;0.30;;;4.10;99.90;;;;;;6238313;22;20008;-62
2021/11/29 08:15:12;;;;;;;4.78;0.80;;;4.20;99.90;;;;;;6235390;22;20099;-63
2021/11/29 08:17:38;;;;;;;12.23;1.33;;;4.20;99.90;;;;;;6236545;23;20008;-62
2021/11/29 08:20:05;;;;;;;6.68;0.45;;;4.20;99.90;;;;;;6237943;22;20101;-62
2021/11/29 08:22:31;;;;;;;2.75;0.60;;;4.30;99.90;;;;;;6237618;22;20004;-62
2021/11/29 08:24:56;;;;;;;2.97;0.88;;;4.30;99.90;;;;;;6238152;22;20418;-61
2021/11/29 08:27:22;;;;;;;4.18;0.57;;;4.40;99.90;;;;;;6236664;22;20029;-62
2021/11/29 08:29:48;;;;;;;1.85;0.30;;;4.40;99.90;;;;;;6238345;22;20032;-62
2021/11/29 08:32:16;;;;;;;7.13;0.75;;;4.50;99.90;;;;;;6237035;22;20008;-62
2021/11/29 08:34:42;;;;;;;1.88;0.38;;;4.50;99.90;;;;;;6236338;22;20044;-61
2021/11/29 08:37:09;;;;;;;3.60;0.38;;;4.50;99.90;;;;;;6236504;22;20433;-63
2021/11/29 08:39:35;;;;;;;1.63;0.30;;;4.50;99.90;;;;;;6238808;22;20062;-62
2021/11/29 08:42:02;;;;;;;3.45;0.10;;;4.50;99.90;;;;;;6237434;22;20016;-61
2021/11/29 08:44:28;;;;;;;2.00;0.20;;;4.50;99.90;;;;;;6238599;22;20378;-61
2021/11/29 08:46:53;;;;;;;1.15;0.10;;;4.40;99.90;;;;;;6235318;22;20062;-62
2021/11/29 08:49:21;;;;;;;2.53;0.30;;;4.40;99.90;;;;;;6238132;22;20090;-64
2021/11/29 08:51:47;;;;;;;4.40;0.45;;;4.40;99.90;;;;;;6238393;22;20103;-62
2021/11/29 08:54:14;;;;;;;0.85;0.32;;;4.40;99.90;;;;;;6238132;22;20087;-62
2021/11/29 08:56:40;;;;;;;6.60;0.20;;;4.40;99.90;;;;;;6238003;22;20008;-61
2021/11/29 08:59:06;;;;;;;2.20;0.32;;;4.30;99.90;;;;;;6237737;22;20471;-62
2021/11/29 09:01:33;;;;;;;2.22;0.60;;;4.20;99.90;;;;;;6238041;22;20004;-61
2021/11/29 09:03:59;;;;;;;3.40;0.22;;;4.20;99.90;;;;;;6237943;22;20027;-61
2021/11/29 09:06:25;;;;;;;0.75;0.10;;;4.30;99.90;;;;;;6237682;22;20008;-62
2021/11/29 09:08:50;;;;;;;0.98;0.30;;;4.20;99.90;;;;;;6238546;22;20020;-62
2021/11/29 09:11:16;;;;;;;0.98;0.10;;;4.30;99.90;;;;;;6237240;22;20005;-61
2021/11/29 09:13:42;;;;;;;3.28;0.32;;;4.30;99.90;;;;;;6238362;22;20015;-62
2021/11/29 09:16:10;;;;;;;0.10;0.00;;;4.40;99.90;;;;;;6236330;22;20012;-62
2021/11/29 09:18:36;;;;;;;0.45;0.00;;;4.40;99.90;;;;;;6236494;23;20020;-61
2021/11/29 09:21:03;;;;;;;0.73;0.40;;;4.40;99.90;;;;;;6236921;22;20085;-62
2021/11/29 09:23:29;;;;;;;0.52;0.05;;;4.50;99.90;;;;;;6238068;22;20334;-62
2021/11/29 09:25:55;;;;;;;4.07;0.30;;;4.50;99.90;;;;;;6237355;22;20047;-63
2021/11/29 09:28:21;;;;;;;0.20;0.00;;;4.40;99.90;;;;;;6237431;22;20075;-62
2021/11/29 09:30:47;;;;;;;0.35;0.03;;;4.40;99.90;;;;;;6236313;22;20035;-62
2021/11/29 09:33:14;;;;;;;2.28;0.57;;;4.30;99.90;;;;;;6234822;22;20005;-63
2021/11/29 09:35:40;;;;;;;1.13;0.10;;;4.20;99.90;;;;;;6237835;22;20087;-61
2021/11/29 09:38:06;;;;;;;1.85;0.20;;;4.40;99.90;;;;;;6237881;22;20390;-62
2021/11/29 09:40:35;;;;;;;0.47;0.10;;;4.50;99.90;;;;;;6237423;22;20004;-61
2021/11/29 09:43:08;;;;;;;0.43;0.10;;;4.50;99.90;;;;;;6237302;22;20004;-62
2021/11/29 09:45:35;;;;;;;0.10;0.00;;;4.50;99.90;;;;;;6237792;22;20083;-61
2021/11/29 09:48:01;;;;;;;1.65;0.10;;;4.50;99.90;;;;;;6237106;22;20016;-62
2021/11/29 09:50:28;;;;;;;0.30;0.00;;;4.50;99.90;;;;;;6237203;22;20020;-62
2021/11/29 09:52:54;;;;;;;0.08;0.00;;;4.60;99.90;;;;;;6236844;22;20062;-63
2021/11/29 09:55:23;;;;;;;2.05;0.10;;;4.70;99.90;;;;;;6237068;22;20510;-61
2021/11/29 09:57:49;;;;;;;2.03;0.00;;;4.90;99.90;;;;;;6237273;22;20008;-62
2021/11/29 10:00:20;;;;;;;0.40;0.00;;;5.00;99.90;;;;;;6236520;22;20027;-63
2021/11/29 10:02:45;;;;;;;;;;;5.10;99.90;;;;;;6237855;22;20474;-63
2021/11/29 10:05:11;;;;;;;1.35;0.38;;;5.20;99.90;;;;;;6236647;22;19907;-62
2021/11/29 10:07:45;;;;;;;0.20;0.10;;;5.30;99.90;;;;;;6237344;22;20004;-63
2021/11/29 10:10:20;;;;;;;1.02;0.30;;;5.40;99.90;;;;;;6236357;22;20018;-63
2021/11/29 10:12:48;;;;;;;0.40;0.05;;;5.40;99.90;;;;;;6237273;22;20008;-63
2021/11/29 10:15:19;;;;;;;0.17;0.00;;;5.50;99.90;;;;;;6236771;22;20012;-62
2021/11/29 10:17:47;;;;;;;1.08;0.03;;;5.50;99.90;;;;;;6237345;22;20066;-63
2021/11/29 10:20:13;;;;;;;0.35;0.00;;;5.50;99.90;;;;;;6236289;22;20078;-62
2021/11/29 10:22:39;;;;;;;8.38;0.70;;;5.60;99.90;;;;;;6237577;22;20513;-62
2021/11/29 10:25:18;;;;;;;1.33;0.40;;;5.60;99.90;;;;;;6236370;22;20023;-63
2021/11/29 10:27:45;;;;;;;0.90;0.43;;;5.60;99.90;;;;;;6236789;22;20445;-62
2021/11/29 10:30:16;;;;;;;3.13;0.25;;;5.60;99.90;;;;;;6236747;22;20024;-62
2021/11/29 10:32:45;;;;;;;3.55;0.10;;;5.70;99.90;;;;;;6238086;22;20020;-61
2021/11/29 10:35:14;;;;;;;2.83;0.30;;;5.70;99.90;;;;;;6235768;22;20019;-64
2021/11/29 10:37:43;;;;;;;1.00;0.15;;;5.70;99.90;;;;;;6236673;22;20438;-62
2021/11/29 10:40:13;;;;;;;0.00;0.00;;;5.70;99.90;;;;;;6236264;22;20008;-64
2021/11/29 10:42:39;;;;;;;0.10;0.10;;;5.70;99.90;;;;;;6236978;22;20004;-63
2021/11/29 10:45:07;;;;;;;1.58;0.65;;;5.70;99.90;;;;;;6237033;22;20008;-62
2021/11/29 10:47:35;;;;;;;0.93;0.10;;;5.90;99.90;;;;;;6237378;22;20012;-63
2021/11/29 10:50:04;;;;;;;2.72;0.55;;;6.00;99.90;;;;;;6234657;22;20073;-63
2021/11/29 10:52:35;;;;;;;1.00;0.10;;;6.20;99.90;;;;;;6237221;22;20008;-62
2021/11/29 10:55:02;;;;;;;1.10;0.20;;;6.40;99.90;;;;;;6235282;22;20012;-62
2021/11/29 10:57:29;;;;;;;2.97;0.30;;;6.60;99.90;;;;;;6236686;22;20015;-62
2021/11/29 10:59:56;;;;;;;0.85;0.08;;;6.60;99.90;;;;;;6237321;22;20083;-62
2021/11/29 11:02:25;;;;;;;0.50;0.17;;;6.60;99.90;;;;;;6232381;22;20019;-62
2021/11/29 11:05:07;;;;;;;1.23;0.20;;;6.50;99.90;;;;;;6236252;22;20014;-62
2021/11/29 11:07:35;;;;;;;1.10;0.30;;;6.50;99.90;;;;;;6235148;22;20008;-62
2021/11/29 11:10:03;;;;;;;3.10;0.20;;;6.60;99.90;;;;;;6235522;22;20012;-61
2021/11/29 11:12:33;;;;;;;0.95;0.15;;;6.70;99.90;;;;;;6235859;22;20058;-61
2021/11/29 11:15:19;;;;;;;5.17;0.10;;;6.90;99.90;;;;;;6232593;22;20020;-62
2021/11/29 11:17:55;;;;;;;2.13;0.25;;;7.00;99.90;;;;;;6233588;22;20806;-61
2021/11/29 11:20:21;;;;;;;1.15;0.60;;;7.10;99.90;;;;;;6233150;22;20008;-63
2021/11/29 11:22:49;;;;;;;2.85;0.20;;;7.00;99.90;;;;;;6233678;22;20019;-63
2021/11/29 11:25:27;;;;;;;3.47;0.47;;;6.90;99.90;;;;;;6232744;22;20008;-67
2021/11/29 11:27:58;;;;;;;3.50;0.28;;;6.80;99.90;;;;;;6234432;22;20525;-61
2021/11/29 11:30:27;;;;;;;3.13;0.93;;;6.70;99.90;;;;;;6232878;22;20016;-62
2021/11/29 11:32:59;;;;;;;7.75;0.20;;;6.70;99.90;;;;;;6232093;22;20499;-64
2021/11/29 11:35:29;;;;;;;4.47;0.10;;;6.70;99.90;;;;;;6230975;22;20146;-61
2021/11/29 11:37:59;;;;;;;0.05;0.00;;;6.70;99.90;;;;;;6230837;22;20065;-62
2021/11/29 11:40:33;;;;;;;0.47;0.00;;;6.70;99.90;;;;;;6234821;22;20078;-62
2021/11/29 11:43:00;;;;;;;2.17;0.20;;;6.70;99.90;;;;;;6232450;22;20014;-63
2021/11/29 11:45:29;;;;;;;5.38;1.83;;;6.80;99.90;;;;;;6234710;22;20008;-62
2021/11/29 11:47:58;;;;;;;4.68;0.40;;;6.80;99.90;;;;;;6236067;22;20034;-61
2021/11/29 11:50:28;;;;;;;2.97;0.98;;;6.90;99.90;;;;;;6233327;22;20059;-62
2021/11/29 11:52:58;;;;;;;1.23;0.20;;;7.00;99.90;;;;;;6235783;22;20085;-62
2021/11/29 11:55:30;;;;;;;2.65;0.20;;;7.10;99.90;;;;;;6235715;22;20018;-62
2021/11/29 11:57:57;;;;;;;0.55;0.10;;;7.20;99.90;;;;;;6236104;22;20022;-62
2021/11/29 12:00:44;;;;;;;1.33;0.13;;;7.20;99.90;;;;;;6236740;22;20019;-62
2021/11/29 12:03:17;;;;;;;2.55;0.30;;;7.20;99.90;;;;;;6234955;22;20099;-63
2021/11/29 12:06:05;;;;;;;3.78;0.20;;;7.20;99.90;;;;;;6234207;23;20012;-61
2021/11/29 12:08:50;;;;;;;1.30;0.00;;;7.20;99.90;;;;;;6237359;22;20013;-61
2021/11/29 12:11:25;;;;;;;5.15;0.20;;;7.10;99.90;;;;;;6236881;22;20079;-62
2021/11/29 12:14:27;;;;;;;0.40;0.20;;;7.10;99.90;;;;;;6236355;23;20349;-62
2021/11/29 12:16:57;;;;;;;4.03;0.30;;;7.10;99.90;;;;;;6237833;22;20083;-62
2021/11/29 12:19:28;;;;;;;0.32;0.00;;;7.10;99.90;;;;;;6237791;22;20074;-62
2021/11/29 12:22:04;;;;;;;1.15;0.50;;;7.00;99.90;;;;;;6238529;22;20354;-63
2021/11/29 12:24:44;;;;;;;0.63;0.10;;;6.90;99.90;;;;;;6238520;22;20008;-63
2021/11/29 12:27:12;;;;;;;5.28;0.20;;;6.90;99.90;;;;;;6238346;22;20000;-63
2021/11/29 12:29:48;;;;;;;2.67;0.60;;;6.80;99.90;;;;;;6238000;22;20486;-62
2021/11/29 12:32:16;;;;;;;1.40;0.25;;;6.80;99.90;;;;;;6237408;22;20017;-63
2021/11/29 12:34:48;;;;;;;1.63;0.20;;;6.70;99.90;;;;;;6238655;22;20016;-62
2021/11/29 12:37:33;;;;;;;1.13;0.10;;;6.70;99.90;;;;;;6237720;22;20372;-63
2021/11/29 12:40:11;;;;;;;2.53;0.20;;;6.60;99.90;;;;;;6236240;22;20019;-63
2021/11/29 12:42:36;;;;;;;0.50;0.10;;;6.60;99.90;;;;;;6238119;22;20012;-62
2021/11/29 12:45:08;;;;;;;2.00;0.22;;;6.60;99.90;;;;;;6238521;22;20024;-63
2021/11/29 12:47:46;;;;;;;1.95;0.10;;;6.60;99.90;;;;;;6238837;22;20723;-62
2021/11/29 12:50:30;;;;;;;2.30;0.20;;;6.70;99.90;;;;;;6237496;22;20091;-63
2021/11/29 12:53:13;;;;;;;0.75;0.10;;;6.70;99.90;;;;;;6238018;22;20509;-61
2021/11/29 12:55:40;;;;;;;0.90;0.10;;;6.70;99.90;;;;;;6238704;22;20031;-63
2021/11/29 12:58:25;;;;;;;1.02;0.10;;;6.60;99.90;;;;;;6238792;22;20013;-62
2021/11/29 13:00:53;;;;;;;0.77;0.10;;;6.70;99.90;;;;;;6239151;22;20043;-62